Time;durP1;ratioP1;P1;durP2;ratioP2;P2;SDS_P1;SDS_P2;PMS_P1;PMS_P2;Temp;Humidity;BMP_temperature;BMP_pressure;BME280_temperature;BME280_humidity;BME280_pressure;Samples;Min_cycle;Max_cycle;Signal;HPM_P1;HPM_P2
2023/06/23 00:03:13;;;;;;;11.95;10.15;;;;;;;;;;10031546;29;20044;-74
2023/06/23 00:08:10;;;;;;;13.48;10.93;;;;;;;;;;10032654;29;20095;-73
2023/06/23 00:13:06;;;;;;;16.83;12.60;;;;;;;;;;10027676;29;20115;-75
2023/06/23 00:18:02;;;;;;;18.02;12.00;;;;;;;;;;10012845;29;20102;-69
2023/06/23 00:22:59;;;;;;;12.93;11.00;;;;;;;;;;10025222;29;20074;-70
2023/06/23 00:27:55;;;;;;;13.18;10.63;;;;;;;;;;10025212;29;20094;-70
2023/06/23 00:32:52;;;;;;;12.80;10.70;;;;;;;;;;10028556;29;20554;-70
2023/06/23 00:37:48;;;;;;;11.15;10.05;;;;;;;;;;10030381;29;20055;-70
2023/06/23 00:42:48;;;;;;;13.40;9.93;;;;;;;;;;10023755;29;20757;-70
2023/06/23 00:47:45;;;;;;;10.45;9.38;;;;;;;;;;10029216;29;20039;-70
2023/06/23 00:52:49;;;;;;;10.20;9.10;;;;;;;;;;10027358;29;20062;-70
2023/06/23 00:57:47;;;;;;;13.25;10.80;;;;;;;;;;10032731;29;20453;-70
2023/06/23 01:02:44;;;;;;;12.10;10.75;;;;;;;;;;10026628;29;20052;-70
2023/06/23 01:07:46;;;;;;;19.67;12.90;;;;;;;;;;10032398;29;20064;-74
2023/06/23 01:12:43;;;;;;;12.65;10.05;;;;;;;;;;10021249;29;20070;-71
2023/06/23 01:17:44;;;;;;;11.70;10.50;;;;;;;;;;10028979;29;20111;-70
2023/06/23 01:23:03;;;;;;;12.50;11.20;;;;;;;;;;10034208;29;20417;-71
2023/06/23 01:28:12;;;;;;;19.42;13.68;;;;;;;;;;10025223;29;20429;-70
2023/06/23 01:33:13;;;;;;;13.27;11.02;;;;;;;;;;10025182;29;20056;-70
2023/06/23 01:38:13;;;;;;;13.48;10.57;;;;;;;;;;10027014;29;20047;-71
2023/06/23 01:43:11;;;;;;;10.77;9.68;;;;;;;;;;10028033;29;20044;-71
2023/06/23 01:48:10;;;;;;;16.75;12.63;;;;;;;;;;10028420;29;20044;-71
2023/06/23 01:53:07;;;;;;;18.60;12.75;;;;;;;;;;10028563;29;20059;-71
2023/06/23 01:58:03;;;;;;;15.15;11.43;;;;;;;;;;10027684;29;20059;-72
2023/06/23 02:03:01;;;;;;;12.27;11.07;;;;;;;;;;10024639;29;20044;-72
2023/06/23 02:07:59;;;;;;;14.77;11.68;;;;;;;;;;10028492;29;20114;-77
2023/06/23 02:12:56;;;;;;;12.93;11.63;;;;;;;;;;10021101;29;20086;-75
2023/06/23 02:17:53;;;;;;;11.82;10.63;;;;;;;;;;10035748;29;20426;-74
2023/06/23 02:22:51;;;;;;;11.30;10.15;;;;;;;;;;10038421;29;20642;-72
2023/06/23 02:27:48;;;;;;;11.55;10.35;;;;;;;;;;10036441;29;20043;-69
2023/06/23 02:32:45;;;;;;;13.20;11.48;;;;;;;;;;10032959;29;20063;-71
2023/06/23 02:37:45;;;;;;;11.77;10.68;;;;;;;;;;10030909;29;20469;-74
2023/06/23 02:42:44;;;;;;;11.27;10.18;;;;;;;;;;10035852;29;20454;-71
2023/06/23 02:47:42;;;;;;;9.93;8.85;;;;;;;;;;10027064;29;20104;-72
2023/06/23 02:52:42;;;;;;;10.77;9.73;;;;;;;;;;10032180;29;20383;-73
2023/06/23 02:57:39;;;;;;;10.43;9.43;;;;;;;;;;10036676;29;20048;-72
2023/06/23 03:02:35;;;;;;;11.57;10.48;;;;;;;;;;10034749;29;20071;-73
2023/06/23 03:07:32;;;;;;;11.43;10.30;;;;;;;;;;10034609;29;20079;-76
2023/06/23 03:12:28;;;;;;;14.05;9.23;;;;;;;;;;10033529;29;20074;-76
2023/06/23 03:17:26;;;;;;;9.18;8.38;;;;;;;;;;10036401;29;20474;-70
2023/06/23 03:22:25;;;;;;;10.52;9.40;;;;;;;;;;10038459;29;20314;-70
2023/06/23 03:27:23;;;;;;;10.55;9.52;;;;;;;;;;10033056;29;20458;-69
2023/06/23 03:32:26;;;;;;;10.82;9.82;;;;;;;;;;10032144;29;20044;-74
2023/06/23 03:37:24;;;;;;;11.43;10.45;;;;;;;;;;10024795;29;20044;-74
2023/06/23 03:42:21;;;;;;;12.02;10.82;;;;;;;;;;10035037;29;20063;-74
2023/06/23 03:47:23;;;;;;;11.77;10.75;;;;;;;;;;10032686;29;20063;-77
2023/06/23 03:52:19;;;;;;;11.43;10.33;;;;;;;;;;10028057;29;20502;-77
2023/06/23 03:57:18;;;;;;;10.40;9.50;;;;;;;;;;10015162;29;20472;-77
2023/06/23 04:02:17;;;;;;;10.35;9.45;;;;;;;;;;10032683;29;20498;-74
2023/06/23 04:07:14;;;;;;;10.38;9.55;;;;;;;;;;10033542;29;20062;-70
2023/06/23 04:12:11;;;;;;;12.25;11.00;;;;;;;;;;10022201;29;20055;-73
2023/06/23 04:17:09;;;;;;;11.23;10.10;;;;;;;;;;10025669;29;20052;-75
2023/06/23 04:22:06;;;;;;;10.30;9.40;;;;;;;;;;10033064;29;20047;-74
2023/06/23 04:27:03;;;;;;;10.60;9.50;;;;;;;;;;10026131;29;20569;-70
2023/06/23 04:32:01;;;;;;;10.27;9.38;;;;;;;;;;10024694;29;20545;-75
2023/06/23 04:37:12;;;;;;;9.82;9.02;;;;;;;;;;10030376;29;20137;-72
2023/06/23 04:42:12;;;;;;;11.23;10.15;;;;;;;;;;10032130;29;20052;-72
2023/06/23 04:47:10;;;;;;;13.63;10.23;;;;;;;;;;10029873;29;20079;-74
2023/06/23 04:52:08;;;;;;;10.68;9.68;;;;;;;;;;10010225;29;20043;-73
2023/06/23 04:57:06;;;;;;;9.98;9.18;;;;;;;;;;10029383;29;20055;-73
2023/06/23 05:02:03;;;;;;;11.55;10.60;;;;;;;;;;10032453;29;20506;-74
2023/06/23 05:07:01;;;;;;;11.27;10.27;;;;;;;;;;10032910;29;20087;-73
2023/06/23 05:11:59;;;;;;;11.68;10.48;;;;;;;;;;10023289;29;20039;-73
2023/06/23 05:16:57;;;;;;;11.20;10.30;;;;;;;;;;10024185;29;20048;-73
2023/06/23 05:21:55;;;;;;;12.75;10.32;;;;;;;;;;10026659;29;20059;-73
2023/06/23 05:26:53;;;;;;;11.85;10.90;;;;;;;;;;10030798;29;20095;-72
2023/06/23 05:31:50;;;;;;;12.48;11.20;;;;;;;;;;10028011;29;20047;-73
2023/06/23 05:36:48;;;;;;;12.63;11.50;;;;;;;;;;10021173;29;20524;-73
2023/06/23 05:41:44;;;;;;;12.02;11.02;;;;;;;;;;10024342;29;20044;-73
2023/06/23 05:46:41;;;;;;;12.52;11.07;;;;;;;;;;10029946;29;20046;-74
2023/06/23 05:51:39;;;;;;;14.70;12.00;;;;;;;;;;10028803;29;20047;-74
2023/06/23 05:56:39;;;;;;;12.27;11.13;;;;;;;;;;10032044;29;20043;-74
2023/06/23 06:01:42;;;;;;;12.70;11.60;;;;;;;;;;10029268;29;20048;-74
2023/06/23 06:06:39;;;;;;;12.88;11.88;;;;;;;;;;10027081;29;20066;-74
2023/06/23 06:11:37;;;;;;;14.15;12.85;;;;;;;;;;10026134;29;20103;-74
2023/06/23 06:16:35;;;;;;;12.80;11.70;;;;;;;;;;10026923;29;20453;-74
2023/06/23 06:21:32;;;;;;;12.43;11.23;;;;;;;;;;10026006;29;20043;-74
2023/06/23 06:26:28;;;;;;;14.13;12.60;;;;;;;;;;10030241;29;20072;-74
2023/06/23 06:31:27;;;;;;;14.18;12.55;;;;;;;;;;10029940;29;20052;-73
2023/06/23 06:36:24;;;;;;;14.13;12.93;;;;;;;;;;10029397;29;20114;-73
2023/06/23 06:41:22;;;;;;;15.02;13.65;;;;;;;;;;10007317;29;20047;-73
2023/06/23 06:46:19;;;;;;;14.82;13.63;;;;;;;;;;10028834;29;20059;-73
2023/06/23 06:51:17;;;;;;;14.60;13.30;;;;;;;;;;10028166;29;20047;-73
2023/06/23 06:56:14;;;;;;;14.43;12.93;;;;;;;;;;10024225;29;20055;-72
2023/06/23 07:01:11;;;;;;;13.95;12.70;;;;;;;;;;10031249;29;20086;-72
2023/06/23 07:06:08;;;;;;;16.80;15.15;;;;;;;;;;10036235;29;20051;-72
2023/06/23 07:11:05;;;;;;;16.75;15.25;;;;;;;;;;10033895;29;20057;-72
2023/06/23 07:16:01;;;;;;;14.45;13.07;;;;;;;;;;10033489;29;20055;-72
2023/06/23 07:20:58;;;;;;;15.73;14.25;;;;;;;;;;10034770;29;20459;-72
2023/06/23 07:25:55;;;;;;;15.75;14.10;;;;;;;;;;10029087;29;20056;-72
2023/06/23 07:30:51;;;;;;;16.05;14.25;;;;;;;;;;10036223;29;20052;-72
2023/06/23 07:35:48;;;;;;;16.67;14.15;;;;;;;;;;10034322;29;20062;-72
2023/06/23 07:40:44;;;;;;;14.88;13.40;;;;;;;;;;10034861;29;20685;-72
2023/06/23 07:45:40;;;;;;;15.65;14.15;;;;;;;;;;10032662;29;20502;-72
2023/06/23 07:50:37;;;;;;;13.35;12.15;;;;;;;;;;10033384;29;20099;-73
2023/06/23 07:55:33;;;;;;;17.08;14.30;;;;;;;;;;10034219;29;20044;-73
2023/06/23 08:00:30;;;;;;;17.50;15.27;;;;;;;;;;10027226;29;20544;-73
2023/06/23 08:05:28;;;;;;;16.70;15.00;;;;;;;;;;10034032;29;20696;-72
2023/06/23 08:10:24;;;;;;;15.48;13.82;;;;;;;;;;10031841;29;20047;-72
2023/06/23 08:15:20;;;;;;;15.90;14.07;;;;;;;;;;10033561;29;20059;-72
2023/06/23 08:20:17;;;;;;;13.48;12.27;;;;;;;;;;10028555;29;20050;-72
2023/06/23 08:25:14;;;;;;;17.20;14.77;;;;;;;;;;10034056;29;20052;-72
2023/06/23 08:30:11;;;;;;;18.70;13.68;;;;;;;;;;10030746;29;20549;-72
2023/06/23 08:35:07;;;;;;;16.08;14.55;;;;;;;;;;10031242;29;20137;-72
2023/06/23 08:40:07;;;;;;;14.95;13.43;;;;;;;;;;10031678;29;20485;-72
2023/06/23 08:45:04;;;;;;;16.73;15.05;;;;;;;;;;10031266;29;20051;-71
2023/06/23 08:50:00;;;;;;;18.60;15.70;;;;;;;;;;10023297;29;20106;-72
2023/06/23 08:54:57;;;;;;;16.02;14.43;;;;;;;;;;10010007;29;20051;-72
2023/06/23 08:59:55;;;;;;;15.75;14.13;;;;;;;;;;10032241;29;20055;-72
2023/06/23 09:04:52;;;;;;;17.25;15.57;;;;;;;;;;10032274;29;20565;-72
2023/06/23 09:09:48;;;;;;;18.50;16.60;;;;;;;;;;10030047;29;20141;-72
2023/06/23 09:14:45;;;;;;;16.77;15.15;;;;;;;;;;10028510;29;20048;-73
2023/06/23 09:19:42;;;;;;;17.23;15.52;;;;;;;;;;10029037;29;20510;-72
2023/06/23 09:24:40;;;;;;;16.10;14.40;;;;;;;;;;10027505;29;20059;-72
2023/06/23 09:29:37;;;;;;;16.35;14.60;;;;;;;;;;10030046;29;20107;-72
2023/06/23 09:34:34;;;;;;;15.65;14.05;;;;;;;;;;10028811;29;20051;-72
2023/06/23 09:39:34;;;;;;;17.23;15.63;;;;;;;;;;10029426;29;20043;-72
2023/06/23 09:44:32;;;;;;;15.32;13.10;;;;;;;;;;10029105;29;20043;-72
2023/06/23 09:49:28;;;;;;;15.35;13.75;;;;;;;;;;10025937;29;20071;-73
2023/06/23 09:54:36;;;;;;;17.02;15.48;;;;;;;;;;10026814;29;20130;-73
2023/06/23 09:59:33;;;;;;;14.98;13.57;;;;;;;;;;10031485;29;20039;-73
2023/06/23 10:04:29;;;;;;;17.38;15.68;;;;;;;;;;10030475;29;20036;-73
2023/06/23 10:09:26;;;;;;;18.13;16.17;;;;;;;;;;10027936;29;20533;-73
2023/06/23 10:14:22;;;;;;;17.13;15.45;;;;;;;;;;10028222;29;20429;-73
2023/06/23 10:19:19;;;;;;;16.92;15.30;;;;;;;;;;10028331;29;20043;-73
2023/06/23 10:24:17;;;;;;;17.10;13.88;;;;;;;;;;10032336;29;20048;-73
2023/06/23 10:29:14;;;;;;;16.67;15.07;;;;;;;;;;10026606;29;20099;-73
2023/06/23 10:34:13;;;;;;;15.05;13.63;;;;;;;;;;10035086;29;20510;-73
2023/06/23 10:39:12;;;;;;;14.57;13.00;;;;;;;;;;10037918;29;20094;-73
2023/06/23 10:44:09;;;;;;;17.27;15.77;;;;;;;;;;10038918;29;20040;-73
2023/06/23 10:49:07;;;;;;;16.08;13.48;;;;;;;;;;10031621;29;20059;-73
2023/06/23 10:54:09;;;;;;;17.90;16.20;;;;;;;;;;10035130;29;20127;-73
2023/06/23 10:59:25;;;;;;;16.85;15.25;;;;;;;;;;10034222;29;20051;-72
2023/06/23 11:04:26;;;;;;;16.88;15.38;;;;;;;;;;10036041;29;20115;-73
2023/06/23 11:09:52;;;;;;;18.60;16.97;;;;;;;;;;10038384;29;20039;-72
2023/06/23 11:14:48;;;;;;;18.60;16.98;;;;;;;;;;10024793;29;20048;-72
2023/06/23 11:19:49;;;;;;;19.63;17.73;;;;;;;;;;10037893;29;20051;-72
2023/06/23 11:24:52;;;;;;;21.77;18.10;;;;;;;;;;10032841;29;20754;-72
2023/06/23 11:30:18;;;;;;;20.88;16.17;;;;;;;;;;10030214;29;20082;-72
2023/06/23 11:35:14;;;;;;;19.17;17.27;;;;;;;;;;10013916;29;20066;-72
2023/06/23 11:40:11;;;;;;;20.23;18.27;;;;;;;;;;10036456;29;20785;-72
2023/06/23 11:45:08;;;;;;;20.85;18.42;;;;;;;;;;10036551;29;20071;-72
2023/06/23 11:50:06;;;;;;;21.38;19.23;;;;;;;;;;10037380;29;20111;-73
2023/06/23 11:55:03;;;;;;;21.30;19.15;;;;;;;;;;10036929;29;20063;-72
2023/06/23 12:00:00;;;;;;;20.10;18.25;;;;;;;;;;10037283;29;20134;-73
2023/06/23 12:04:59;;;;;;;20.38;18.50;;;;;;;;;;10035159;29;20513;-73
2023/06/23 12:09:57;;;;;;;19.90;18.10;;;;;;;;;;10040950;29;20059;-73
2023/06/23 12:14:57;;;;;;;20.45;18.50;;;;;;;;;;10037815;29;20051;-73
2023/06/23 12:19:55;;;;;;;21.73;18.95;;;;;;;;;;10030301;29;20047;-73
2023/06/23 12:24:54;;;;;;;21.25;18.92;;;;;;;;;;10031137;29;20047;-72
2023/06/23 12:29:51;;;;;;;21.63;19.50;;;;;;;;;;10028463;29;20059;-73
2023/06/23 12:34:48;;;;;;;20.63;18.52;;;;;;;;;;10034630;29;20055;-73
2023/06/23 12:39:52;;;;;;;21.08;19.10;;;;;;;;;;10035698;29;20063;-73
2023/06/23 12:44:49;;;;;;;18.85;16.92;;;;;;;;;;10028969;29;20060;-73
2023/06/23 12:49:47;;;;;;;19.23;17.33;;;;;;;;;;10031012;29;20425;-73
2023/06/23 12:54:43;;;;;;;18.10;16.30;;;;;;;;;;10033612;29;20051;-73
2023/06/23 12:59:41;;;;;;;17.55;15.82;;;;;;;;;;10032173;29;20048;-73
2023/06/23 13:04:37;;;;;;;18.67;16.20;;;;;;;;;;10033193;29;20047;-73
2023/06/23 13:09:34;;;;;;;17.05;15.35;;;;;;;;;;10022501;29;20059;-73
2023/06/23 13:14:30;;;;;;;16.05;13.75;;;;;;;;;;10026983;29;20047;-73
2023/06/23 13:19:27;;;;;;;13.80;12.40;;;;;;;;;;10033514;29;20040;-73
2023/06/23 13:24:23;;;;;;;15.55;14.15;;;;;;;;;;10016914;29;20055;-73
2023/06/23 13:29:19;;;;;;;14.20;12.80;;;;;;;;;;10031564;29;20204;-73
2023/06/23 13:34:15;;;;;;;13.63;12.23;;;;;;;;;;10031897;29;20111;-73
2023/06/23 13:39:12;;;;;;;12.80;11.50;;;;;;;;;;10029391;29;20051;-73
2023/06/23 13:44:09;;;;;;;12.40;11.15;;;;;;;;;;10030322;29;20052;-73
2023/06/23 13:49:05;;;;;;;12.07;10.82;;;;;;;;;;10032314;29;20047;-73
2023/06/23 13:54:04;;;;;;;11.95;10.43;;;;;;;;;;10033186;29;20479;-72
2023/06/23 13:59:00;;;;;;;11.88;10.68;;;;;;;;;;10031867;29;20391;-73
2023/06/23 14:03:56;;;;;;;12.32;11.10;;;;;;;;;;10029302;29;20060;-73
2023/06/23 14:08:54;;;;;;;11.60;10.60;;;;;;;;;;10006208;29;20438;-73
2023/06/23 14:13:51;;;;;;;11.55;10.45;;;;;;;;;;10038018;29;20505;-73
2023/06/23 14:18:47;;;;;;;11.70;10.70;;;;;;;;;;10039394;29;20043;-74
2023/06/23 14:23:44;;;;;;;9.52;8.63;;;;;;;;;;10040369;29;20047;-73
2023/06/23 14:28:40;;;;;;;8.88;8.07;;;;;;;;;;10040594;29;20051;-75
2023/06/23 14:33:36;;;;;;;9.45;8.50;;;;;;;;;;10031687;29;20051;-75
2023/06/23 14:38:33;;;;;;;9.88;8.90;;;;;;;;;;10038596;29;20469;-75
2023/06/23 14:43:29;;;;;;;9.80;8.90;;;;;;;;;;10039369;29;20061;-73
2023/06/23 14:48:26;;;;;;;9.70;8.88;;;;;;;;;;10022822;29;20094;-74
2023/06/23 14:53:24;;;;;;;8.23;7.43;;;;;;;;;;10035894;29;20047;-73
2023/06/23 14:58:20;;;;;;;7.85;7.18;;;;;;;;;;10031190;29;20704;-74
2023/06/23 15:03:16;;;;;;;8.43;7.63;;;;;;;;;;10042933;29;20111;-74
2023/06/23 15:08:17;;;;;;;8.23;7.45;;;;;;;;;;10035676;29;20051;-74
2023/06/23 15:13:14;;;;;;;6.95;6.35;;;;;;;;;;10037043;29;20048;-73
2023/06/23 15:18:10;;;;;;;8.07;7.38;;;;;;;;;;10034403;29;20067;-74
2023/06/23 15:23:06;;;;;;;8.15;7.35;;;;;;;;;;10037416;29;20071;-74
2023/06/23 15:28:06;;;;;;;7.50;6.90;;;;;;;;;;10033706;29;20052;-74
2023/06/23 15:33:02;;;;;;;8.10;7.30;;;;;;;;;;10035357;29;20051;-74
2023/06/23 15:37:58;;;;;;;8.38;7.68;;;;;;;;;;10036950;29;20043;-74
2023/06/23 15:42:55;;;;;;;7.53;6.82;;;;;;;;;;10031606;29;20048;-74
2023/06/23 15:47:51;;;;;;;6.97;6.47;;;;;;;;;;10034715;29;20063;-74
2023/06/23 15:52:47;;;;;;;7.05;6.45;;;;;;;;;;10022176;29;20070;-74
2023/06/23 15:57:44;;;;;;;10.27;6.72;;;;;;;;;;10035549;29;20051;-74
2023/06/23 16:02:40;;;;;;;6.85;6.25;;;;;;;;;;10035331;29;20123;-74
2023/06/23 16:07:37;;;;;;;6.47;5.97;;;;;;;;;;10032316;29;20047;-73
2023/06/23 16:12:33;;;;;;;7.03;6.38;;;;;;;;;;10018735;29;20054;-73
2023/06/23 16:17:29;;;;;;;7.00;6.35;;;;;;;;;;10035544;29;20454;-74
2023/06/23 16:22:26;;;;;;;6.68;6.07;;;;;;;;;;10036577;29;20071;-75
2023/06/23 16:27:22;;;;;;;7.32;6.63;;;;;;;;;;10034769;29;20047;-74
2023/06/23 16:32:19;;;;;;;7.18;6.47;;;;;;;;;;10026797;29;20698;-74
2023/06/23 16:37:15;;;;;;;6.88;6.32;;;;;;;;;;10034668;29;20153;-74
2023/06/23 16:42:11;;;;;;;8.38;7.30;;;;;;;;;;10028675;29;20099;-76
2023/06/23 16:47:08;;;;;;;7.78;7.07;;;;;;;;;;10017064;29;20150;-75
2023/06/23 16:52:05;;;;;;;6.88;6.28;;;;;;;;;;10031040;29;20054;-75
2023/06/23 16:57:02;;;;;;;6.97;6.35;;;;;;;;;;10026713;29;20052;-75
2023/06/23 17:01:58;;;;;;;7.10;6.47;;;;;;;;;;10032967;29;20039;-75
2023/06/23 17:06:54;;;;;;;7.50;6.80;;;;;;;;;;10033279;29;20051;-75
2023/06/23 17:11:51;;;;;;;6.70;6.10;;;;;;;;;;10034020;29;20047;-75
2023/06/23 17:17:08;;;;;;;6.72;6.13;;;;;;;;;;10028389;29;20134;-75
2023/06/23 17:22:04;;;;;;;7.60;6.22;;;;;;;;;;10026802;29;20044;-75
2023/06/23 17:27:01;;;;;;;7.20;6.50;;;;;;;;;;10034225;29;20048;-74
2023/06/23 17:31:57;;;;;;;6.90;6.18;;;;;;;;;;10031264;29;20055;-74
2023/06/23 17:36:53;;;;;;;9.85;7.50;;;;;;;;;;10026468;29;20047;-74
2023/06/23 17:41:50;;;;;;;7.10;6.40;;;;;;;;;;10028393;29;20050;-73
2023/06/23 17:46:46;;;;;;;7.18;6.47;;;;;;;;;;10030804;29;20510;-73
2023/06/23 17:51:43;;;;;;;6.57;5.97;;;;;;;;;;10032583;29;20055;-73
2023/06/23 17:56:39;;;;;;;9.07;6.25;;;;;;;;;;10031430;29;20551;-73
2023/06/23 18:01:36;;;;;;;7.30;6.60;;;;;;;;;;10032349;29;20099;-73
2023/06/23 18:06:34;;;;;;;6.63;6.03;;;;;;;;;;10026198;29;20071;-73
2023/06/23 18:11:30;;;;;;;9.60;6.78;;;;;;;;;;10032514;29;20636;-74
2023/06/23 18:16:26;;;;;;;32.30;20.88;;;;;;;;;;10025488;29;20704;-73
2023/06/23 18:21:23;;;;;;;14.38;12.02;;;;;;;;;;10032310;29;20059;-74
2023/06/23 18:26:22;;;;;;;7.93;7.20;;;;;;;;;;10032922;29;20104;-69
2023/06/23 18:31:19;;;;;;;8.70;7.80;;;;;;;;;;10030506;29;20498;-69
2023/06/23 18:36:15;;;;;;;7.20;6.50;;;;;;;;;;10031570;29;20078;-69
2023/06/23 18:41:11;;;;;;;9.02;8.05;;;;;;;;;;10029903;29;20101;-69
2023/06/23 18:46:08;;;;;;;13.80;7.82;;;;;;;;;;10025814;29;20043;-69
2023/06/23 18:51:04;;;;;;;9.00;6.85;;;;;;;;;;10026506;29;20056;-69
2023/06/23 18:56:01;;;;;;;9.65;7.28;;;;;;;;;;10024924;29;20067;-69
2023/06/23 19:00:57;;;;;;;7.63;6.93;;;;;;;;;;10032312;29;20658;-69
2023/06/23 19:05:54;;;;;;;8.15;7.35;;;;;;;;;;10017992;29;20099;-69
2023/06/23 19:10:53;;;;;;;8.77;7.65;;;;;;;;;;10036177;29;20082;-69
2023/06/23 19:15:49;;;;;;;13.88;8.93;;;;;;;;;;10037132;29;20524;-69
2023/06/23 19:20:46;;;;;;;8.10;7.30;;;;;;;;;;10030811;29;20179;-69
2023/06/23 19:25:43;;;;;;;8.23;6.68;;;;;;;;;;10032432;29;20123;-69
2023/06/23 19:30:39;;;;;;;9.02;7.22;;;;;;;;;;10029596;29;20043;-69
2023/06/23 19:35:37;;;;;;;7.78;6.75;;;;;;;;;;10012213;29;20051;-69
2023/06/23 19:40:34;;;;;;;12.02;7.82;;;;;;;;;;10035396;29;20054;-69
2023/06/23 19:45:31;;;;;;;10.55;9.00;;;;;;;;;;10030627;29;20043;-68
2023/06/23 19:50:27;;;;;;;9.50;8.32;;;;;;;;;;10036549;29;20506;-70
2023/06/23 19:55:24;;;;;;;9.82;8.82;;;;;;;;;;10034944;29;20054;-70
2023/06/23 20:00:20;;;;;;;10.35;9.25;;;;;;;;;;10029293;29;20070;-70
2023/06/23 20:05:16;;;;;;;10.80;9.70;;;;;;;;;;10028809;29;20044;-70
2023/06/23 20:10:14;;;;;;;10.35;9.35;;;;;;;;;;10035371;29;20044;-70
2023/06/23 20:15:10;;;;;;;11.20;10.15;;;;;;;;;;10036048;29;20096;-70
2023/06/23 20:20:07;;;;;;;11.43;10.25;;;;;;;;;;10026177;29;20110;-71
2023/06/23 20:25:04;;;;;;;11.93;10.20;;;;;;;;;;10033692;29;20414;-71
2023/06/23 20:30:02;;;;;;;11.95;10.75;;;;;;;;;;10028098;29;20058;-71
2023/06/23 20:34:59;;;;;;;11.52;10.15;;;;;;;;;;10035999;29;20423;-70
2023/06/23 20:39:56;;;;;;;13.70;11.48;;;;;;;;;;10034984;29;20044;-70
2023/06/23 20:44:53;;;;;;;14.70;11.88;;;;;;;;;;10025319;29;20071;-70
2023/06/23 20:49:49;;;;;;;13.00;11.60;;;;;;;;;;10030665;29;20186;-71
2023/06/23 20:54:46;;;;;;;11.90;10.70;;;;;;;;;;10030708;29;20157;-71
2023/06/23 20:59:43;;;;;;;13.30;11.50;;;;;;;;;;10033885;29;20043;-71
2023/06/23 21:04:39;;;;;;;14.85;13.15;;;;;;;;;;10031680;29;20051;-70
2023/06/23 21:09:37;;;;;;;12.48;11.18;;;;;;;;;;10027149;29;20052;-70
2023/06/23 21:14:34;;;;;;;14.55;12.23;;;;;;;;;;10033133;29;20123;-70
2023/06/23 21:19:30;;;;;;;15.30;11.52;;;;;;;;;;10032582;29;20079;-70
2023/06/23 21:24:27;;;;;;;13.45;11.15;;;;;;;;;;10028409;29;20067;-70
2023/06/23 21:29:24;;;;;;;11.85;10.65;;;;;;;;;;10032083;29;20043;-70
2023/06/23 21:34:20;;;;;;;12.82;11.07;;;;;;;;;;10032456;29;20130;-70
2023/06/23 21:39:17;;;;;;;12.68;11.15;;;;;;;;;;10027526;29;20043;-70
2023/06/23 21:44:14;;;;;;;12.95;11.65;;;;;;;;;;10030697;29;20058;-70
2023/06/23 21:49:10;;;;;;;13.75;11.10;;;;;;;;;;10023766;29;20050;-70
2023/06/23 21:54:07;;;;;;;13.30;12.00;;;;;;;;;;10029805;29;20054;-71
2023/06/23 21:59:03;;;;;;;13.95;12.25;;;;;;;;;;10024814;29;20060;-72
2023/06/23 22:03:59;;;;;;;12.73;11.43;;;;;;;;;;10031518;29;20528;-69
2023/06/23 22:08:56;;;;;;;12.02;10.52;;;;;;;;;;10030668;29;20051;-70
2023/06/23 22:13:53;;;;;;;13.77;12.38;;;;;;;;;;10031504;29;20103;-69
2023/06/23 22:18:49;;;;;;;12.80;11.48;;;;;;;;;;10005783;29;20676;-69
2023/06/23 22:23:46;;;;;;;13.35;11.85;;;;;;;;;;10012075;29;20110;-69
2023/06/23 22:28:42;;;;;;;15.13;12.77;;;;;;;;;;10032359;29;20076;-69
2023/06/23 22:33:38;;;;;;;12.77;11.25;;;;;;;;;;10035166;29;20051;-71
2023/06/23 22:38:35;;;;;;;14.52;11.50;;;;;;;;;;10022224;29;20446;-73
2023/06/23 22:43:31;;;;;;;14.18;11.82;;;;;;;;;;10037961;29;20115;-72
2023/06/23 22:48:28;;;;;;;15.27;12.82;;;;;;;;;;10033909;29;20115;-72
2023/06/23 22:53:24;;;;;;;13.80;11.52;;;;;;;;;;10037457;29;20556;-72
2023/06/23 22:58:20;;;;;;;14.15;11.50;;;;;;;;;;10036879;29;20051;-72
2023/06/23 23:03:17;;;;;;;13.18;11.23;;;;;;;;;;10016704;29;20047;-72
2023/06/23 23:08:13;;;;;;;14.32;12.82;;;;;;;;;;10017825;29;20044;-71
2023/06/23 23:13:09;;;;;;;13.75;12.25;;;;;;;;;;10037423;29;20043;-71
2023/06/23 23:18:06;;;;;;;15.65;11.45;;;;;;;;;;10037601;29;20067;-70
2023/06/23 23:23:02;;;;;;;11.73;10.60;;;;;;;;;;10039126;29;20122;-70
2023/06/23 23:28:01;;;;;;;17.20;12.30;;;;;;;;;;10032253;29;20051;-71
2023/06/23 23:33:00;;;;;;;14.07;12.55;;;;;;;;;;10038219;29;20070;-69
2023/06/23 23:37:58;;;;;;;14.35;13.00;;;;;;;;;;10034022;29;20052;-68
2023/06/23 23:42:54;;;;;;;15.88;14.20;;;;;;;;;;10033599;29;20430;-69
2023/06/23 23:47:51;;;;;;;14.30;12.68;;;;;;;;;;10037961;29;20756;-71
2023/06/23 23:52:47;;;;;;;16.42;13.40;;;;;;;;;;10036987;29;20051;-67
2023/06/23 23:57:44;;;;;;;14.32;12.80;;;;;;;;;;10037259;29;20439;-68
